Terminal Aerodrome Forecast
Issued by NWS

Home | Current Version | Previous Version | Text Only | Print | Product List | Glossary On
Versions: 1 2 3 4 5 6 7 8 9 10 11 12 13
000
FTUS45 KGJT 292335
TAFTEX
TAF
KTEX 292335Z 3000/3024 23005KT P6SM VCTS BKN090CB BKN110
      TEMPO 3000/3002 VRB15G30KT -TSRA OVC080CB
     FM300300 15006KT P6SM SCT090 SCT250
     FM301400 18008KT P6SM SCT250
     FM301800 24009KT P6SM VCSH SCT080 BKN250
     FM302100 28008KT P6SM VCTS SCT090CB BKN200=

USA.gov is the U.S. government's official web portal to all federal, state and local government web resources and services.